Time;durP1;ratioP1;P1;durP2;ratioP2;P2;SDS_P1;SDS_P2;PMS_P1;PMS_P2;Temp;Humidity;BMP_temperature;BMP_pressure;BME280_temperature;BME280_humidity;BME280_pressure;Samples;Min_cycle;Max_cycle;Signal;HPM_P1;HPM_P2
2023/07/06 00:00:53;;;;;;;0.30;0.30;;;14.00;99.90;;;;;;4997713;28;20065;-78
2023/07/06 00:03:23;;;;;;;0.85;0.57;;;14.00;99.90;;;;;;4962383;28;20470;-77
2023/07/06 00:05:50;;;;;;;0.75;0.52;;;13.90;99.90;;;;;;5001056;28;20077;-78
2023/07/06 00:08:17;;;;;;;0.47;0.40;;;13.90;99.90;;;;;;4974088;28;20497;-78
2023/07/06 00:10:45;;;;;;;0.50;0.40;;;13.80;99.90;;;;;;4985895;28;20104;-78
2023/07/06 00:13:12;;;;;;;0.70;0.50;;;13.80;99.90;;;;;;4967601;28;20076;-78
2023/07/06 00:15:42;;;;;;;0.88;0.50;;;13.70;99.90;;;;;;4990631;28;20112;-79
2023/07/06 00:18:09;;;;;;;0.70;0.70;;;13.70;99.90;;;;;;4971202;28;20046;-78
2023/07/06 00:20:39;;;;;;;0.50;0.32;;;13.70;99.90;;;;;;4966593;28;20409;-77
2023/07/06 00:23:07;;;;;;;0.90;0.60;;;13.60;99.90;;;;;;4984151;28;20228;-78
2023/07/06 00:25:35;;;;;;;0.30;0.30;;;13.60;99.90;;;;;;4951712;28;20057;-78
2023/07/06 00:28:02;;;;;;;0.90;0.55;;;13.60;99.90;;;;;;4982760;28;20037;-78
2023/07/06 00:33:13;;;;;;;1.60;0.60;;;13.50;99.90;;;;;;4974425;28;20050;-78
2023/07/06 00:35:40;;;;;;;0.70;0.55;;;13.40;99.90;;;;;;4969541;28;20096;-77
2023/07/06 00:38:13;;;;;;;0.85;0.40;;;13.40;99.90;;;;;;4985568;28;20045;-77
2023/07/06 00:40:42;;;;;;;0.30;0.20;;;13.30;99.90;;;;;;4955475;28;20061;-77
2023/07/06 00:43:10;;;;;;;0.40;0.30;;;13.30;99.90;;;;;;4953374;28;20081;-77
2023/07/06 00:45:39;;;;;;;0.35;0.30;;;13.30;99.90;;;;;;4972331;28;20167;-77
2023/07/06 00:48:21;;;;;;;0.85;0.50;;;13.30;99.90;;;;;;4974686;28;20050;-78
2023/07/06 00:50:56;;;;;;;1.10;0.52;;;13.30;99.90;;;;;;4975326;28;20054;-77
2023/07/06 00:53:26;;;;;;;0.73;0.60;;;13.20;99.90;;;;;;4972421;28;20559;-77
2023/07/06 00:55:54;;;;;;;1.52;0.50;;;13.20;99.90;;;;;;5000782;28;20060;-77
2023/07/06 00:58:24;;;;;;;0.55;0.40;;;13.20;99.90;;;;;;4990328;28;20049;-77
2023/07/06 01:00:52;;;;;;;1.48;0.60;;;13.20;99.90;;;;;;4977922;28;20073;-78
2023/07/06 01:03:19;;;;;;;0.52;0.40;;;13.20;99.90;;;;;;4971501;28;20069;-79
2023/07/06 01:05:48;;;;;;;0.85;0.50;;;13.10;99.90;;;;;;4971125;28;20056;-79
2023/07/06 01:08:16;;;;;;;0.30;0.30;;;13.10;99.90;;;;;;4973144;28;20108;-77
2023/07/06 01:10:43;;;;;;;1.02;0.30;;;13.10;99.90;;;;;;4985184;28;20042;-78
2023/07/06 01:13:10;;;;;;;0.30;0.30;;;13.00;99.90;;;;;;4988491;28;20053;-78
2023/07/06 01:15:47;;;;;;;1.20;0.50;;;13.00;99.90;;;;;;4958538;28;20839;-78
2023/07/06 01:18:36;;;;;;;0.30;0.30;;;13.00;99.90;;;;;;4973815;28;20756;-78
2023/07/06 01:21:16;;;;;;;0.57;0.50;;;12.90;99.90;;;;;;5003236;28;20112;-77
2023/07/06 01:24:20;;;;;;;0.57;0.50;;;12.90;99.90;;;;;;4970245;28;20086;-78
2023/07/06 01:27:08;;;;;;;0.70;0.32;;;12.90;99.90;;;;;;4998473;28;20460;-76
2023/07/06 01:29:54;;;;;;;0.52;0.40;;;12.90;99.90;;;;;;4974162;28;20111;-78
2023/07/06 01:32:26;;;;;;;1.02;0.50;;;12.90;99.90;;;;;;5006534;28;20409;-78
2023/07/06 01:35:01;;;;;;;0.88;0.60;;;12.80;99.90;;;;;;4974029;28;20131;-77
2023/07/06 01:37:34;;;;;;;0.35;0.30;;;12.80;99.90;;;;;;4973985;28;20046;-78
2023/07/06 01:40:04;;;;;;;0.40;0.35;;;12.80;99.90;;;;;;4977228;28;20054;-77
2023/07/06 01:42:31;;;;;;;0.55;0.40;;;12.80;99.90;;;;;;4994521;28;20120;-78
2023/07/06 01:45:19;;;;;;;1.10;0.45;;;12.70;99.90;;;;;;4960760;28;20132;-77
2023/07/06 01:47:48;;;;;;;0.50;0.40;;;12.70;99.90;;;;;;4959333;28;20046;-77
2023/07/06 01:50:16;;;;;;;0.70;0.45;;;12.70;99.90;;;;;;4975106;28;20061;-77
2023/07/06 01:52:52;;;;;;;0.60;0.30;;;12.70;99.90;;;;;;4970890;28;20609;-78
2023/07/06 01:55:32;;;;;;;0.63;0.30;;;12.70;99.90;;;;;;4992163;28;20049;-78
2023/07/06 01:58:26;;;;;;;0.60;0.40;;;12.70;99.90;;;;;;4958743;28;20521;-77
2023/07/06 02:01:08;;;;;;;0.25;0.25;;;12.70;99.90;;;;;;4992784;28;20042;-78
2023/07/06 02:03:36;;;;;;;0.50;0.35;;;12.70;99.90;;;;;;4969077;28;20046;-78
2023/07/06 02:06:05;;;;;;;0.80;0.40;;;12.70;99.90;;;;;;4960254;28;20398;-77
2023/07/06 02:08:31;;;;;;;0.88;0.45;;;12.60;99.90;;;;;;4974878;28;20111;-78
2023/07/06 02:11:01;;;;;;;0.93;0.43;;;12.60;99.90;;;;;;4972891;28;20046;-77
2023/07/06 02:13:28;;;;;;;0.70;0.60;;;12.60;99.90;;;;;;4964924;28;20101;-77
2023/07/06 02:15:54;;;;;;;0.55;0.40;;;12.60;99.90;;;;;;5000012;28;20068;-77
2023/07/06 02:18:22;;;;;;;0.40;0.40;;;12.60;99.90;;;;;;5007793;28;20054;-78
2023/07/06 02:20:48;;;;;;;0.80;0.40;;;12.60;99.90;;;;;;4996191;28;20681;-77
2023/07/06 02:23:15;;;;;;;0.45;0.30;;;12.60;99.90;;;;;;4978648;28;20058;-77
2023/07/06 02:25:42;;;;;;;1.05;0.40;;;12.50;99.90;;;;;;5004863;28;20053;-77
2023/07/06 02:28:10;;;;;;;0.93;0.55;;;12.60;99.90;;;;;;5006258;28;20049;-78
2023/07/06 02:30:37;;;;;;;0.40;0.40;;;12.60;99.90;;;;;;4991347;28;20045;-78
2023/07/06 02:33:04;;;;;;;0.40;0.40;;;12.50;99.90;;;;;;5008088;28;20081;-78
2023/07/06 02:35:32;;;;;;;1.08;0.30;;;12.50;99.90;;;;;;4958803;28;20050;-78
2023/07/06 02:37:59;;;;;;;0.50;0.45;;;12.50;99.90;;;;;;4988914;28;20782;-78
2023/07/06 02:40:26;;;;;;;0.50;0.43;;;12.50;99.90;;;;;;4978800;28;20168;-78
2023/07/06 02:42:52;;;;;;;0.30;0.30;;;12.50;99.90;;;;;;4990432;28;20042;-77
2023/07/06 02:45:20;;;;;;;0.40;0.40;;;12.50;99.90;;;;;;5007761;28;20362;-77
2023/07/06 02:47:46;;;;;;;0.30;0.30;;;12.50;99.90;;;;;;5008482;28;20049;-78
2023/07/06 02:50:14;;;;;;;0.70;0.40;;;12.50;99.90;;;;;;4989937;28;20466;-76
2023/07/06 02:52:44;;;;;;;0.70;0.40;;;12.50;99.90;;;;;;4990194;28;20100;-77
2023/07/06 02:55:11;;;;;;;0.93;0.65;;;12.50;99.90;;;;;;4974888;28;20046;-78
2023/07/06 02:57:39;;;;;;;0.90;0.40;;;12.40;99.90;;;;;;4973665;28;20076;-77
2023/07/06 03:00:13;;;;;;;0.32;0.30;;;12.40;99.90;;;;;;4974534;28;20046;-77
2023/07/06 03:02:40;;;;;;;;;;;12.40;99.90;;;;;;4963381;28;20426;-78
2023/07/06 03:05:07;;;;;;;0.30;0.30;;;12.40;99.90;;;;;;4992813;28;19921;-78
2023/07/06 03:07:35;;;;;;;0.50;0.40;;;12.30;99.90;;;;;;5007467;28;20090;-78
2023/07/06 03:10:03;;;;;;;0.63;0.30;;;12.20;99.90;;;;;;4990316;28;20383;-78
2023/07/06 03:12:33;;;;;;;0.70;0.30;;;12.20;99.90;;;;;;4973932;28;20068;-78
2023/07/06 03:15:00;;;;;;;0.80;0.40;;;12.20;99.90;;;;;;4975075;28;20045;-79
2023/07/06 03:17:27;;;;;;;1.42;0.52;;;12.10;99.90;;;;;;5007437;28;20433;-78
2023/07/06 03:19:54;;;;;;;0.50;0.30;;;12.10;99.90;;;;;;4989510;28;20540;-78
2023/07/06 03:22:21;;;;;;;1.10;0.50;;;12.00;99.90;;;;;;4989598;28;20042;-78
2023/07/06 03:24:48;;;;;;;0.73;0.50;;;12.00;99.90;;;;;;5007240;28;20054;-78
2023/07/06 03:27:14;;;;;;;0.40;0.38;;;12.00;99.90;;;;;;4990524;28;20050;-78
2023/07/06 03:29:41;;;;;;;0.60;0.40;;;12.00;99.90;;;;;;4973651;28;20128;-78
2023/07/06 03:32:08;;;;;;;0.60;0.28;;;12.00;99.90;;;;;;4990105;28;20042;-78
2023/07/06 03:34:35;;;;;;;0.50;0.30;;;12.00;99.90;;;;;;4989499;28;20262;-78
2023/07/06 03:37:04;;;;;;;0.70;0.40;;;11.90;99.90;;;;;;5006840;28;20049;-78
2023/07/06 03:39:31;;;;;;;1.20;0.30;;;11.90;99.90;;;;;;4989658;28;20643;-78
2023/07/06 03:41:58;;;;;;;0.40;0.32;;;11.90;99.90;;;;;;5007222;28;20127;-78
2023/07/06 03:44:24;;;;;;;0.98;0.40;;;11.80;99.90;;;;;;4957149;28;20081;-78
2023/07/06 03:46:51;;;;;;;0.75;0.40;;;11.80;99.90;;;;;;5006812;28;20049;-78
2023/07/06 03:49:18;;;;;;;0.55;0.30;;;11.80;99.90;;;;;;5006564;28;20058;-78
2023/07/06 03:51:47;;;;;;;0.20;0.20;;;11.80;99.90;;;;;;4990212;28;20104;-78
2023/07/06 03:54:14;;;;;;;0.52;0.38;;;11.80;99.90;;;;;;5011848;28;20053;-78
2023/07/06 03:56:42;;;;;;;0.70;0.40;;;11.70;99.90;;;;;;4989170;28;20464;-77
2023/07/06 03:59:09;;;;;;;0.55;0.35;;;11.70;99.90;;;;;;4997734;28;20057;-78
2023/07/06 04:01:36;;;;;;;0.80;0.40;;;11.70;99.90;;;;;;5006750;28;20050;-78
2023/07/06 04:04:05;;;;;;;1.23;0.43;;;11.70;99.90;;;;;;5006349;28;20174;-78
2023/07/06 04:06:40;;;;;;;0.98;0.60;;;11.60;99.90;;;;;;4989476;28;20050;-78
2023/07/06 04:09:09;;;;;;;0.22;0.22;;;11.60;99.90;;;;;;4990457;28;20100;-77
2023/07/06 04:11:36;;;;;;;1.35;0.52;;;11.60;99.90;;;;;;4972685;28;20080;-78
2023/07/06 04:14:03;;;;;;;0.30;0.30;;;11.50;99.90;;;;;;4957189;28;20050;-77
2023/07/06 04:16:30;;;;;;;0.43;0.40;;;11.50;99.90;;;;;;4956795;28;20050;-78
2023/07/06 04:18:57;;;;;;;1.05;0.40;;;11.50;99.90;;;;;;4988302;28;20136;-78
2023/07/06 04:21:24;;;;;;;0.20;0.20;;;11.50;99.90;;;;;;5005971;28;20143;-78
2023/07/06 04:23:51;;;;;;;0.60;0.30;;;11.50;99.90;;;;;;4988772;28;20050;-79
2023/07/06 04:26:19;;;;;;;0.20;0.20;;;11.50;99.90;;;;;;4988393;28;20073;-78
2023/07/06 04:28:47;;;;;;;0.57;0.30;;;11.50;99.90;;;;;;4957022;28;20077;-77
2023/07/06 04:31:15;;;;;;;0.77;0.50;;;11.50;99.90;;;;;;4983936;28;20519;-78
2023/07/06 04:33:45;;;;;;;0.57;0.30;;;11.50;99.90;;;;;;4987002;28;20054;-78
2023/07/06 04:36:15;;;;;;;0.40;0.30;;;11.50;99.90;;;;;;4974115;28;20046;-79
2023/07/06 04:38:41;;;;;;;0.70;0.40;;;11.50;99.90;;;;;;4956736;28;20050;-78
2023/07/06 04:41:09;;;;;;;1.30;0.40;;;11.60;99.90;;;;;;4972954;28;20092;-78
2023/07/06 04:43:36;;;;;;;0.43;0.40;;;11.60;99.90;;;;;;4971653;28;20077;-77
2023/07/06 04:46:03;;;;;;;0.20;0.20;;;11.60;99.90;;;;;;4961046;28;20054;-78
2023/07/06 04:48:33;;;;;;;0.73;0.43;;;11.60;99.90;;;;;;4991563;28;20515;-76
2023/07/06 04:51:00;;;;;;;1.17;0.50;;;11.70;99.90;;;;;;5003380;28;20081;-77
2023/07/06 04:53:26;;;;;;;0.68;0.45;;;11.70;99.90;;;;;;4986478;28;20137;-78
2023/07/06 04:55:54;;;;;;;0.40;0.40;;;11.80;99.90;;;;;;4968747;28;20077;-78
2023/07/06 04:58:21;;;;;;;0.63;0.40;;;11.80;99.90;;;;;;4985207;28;20042;-79
2023/07/06 05:00:50;;;;;;;0.80;0.40;;;11.90;99.90;;;;;;5004229;28;20111;-79
2023/07/06 05:03:17;;;;;;;0.70;0.50;;;11.90;99.90;;;;;;4968942;28;20059;-79
2023/07/06 05:05:45;;;;;;;0.30;0.30;;;12.00;99.90;;;;;;4997827;28;20091;-78
2023/07/06 05:08:17;;;;;;;0.70;0.63;;;12.10;99.90;;;;;;4980394;28;20726;-77
2023/07/06 05:10:46;;;;;;;1.17;0.55;;;12.10;99.90;;;;;;4968056;28;20052;-78
2023/07/06 05:13:14;;;;;;;2.70;0.50;;;12.20;99.90;;;;;;4964205;28;20057;-78
2023/07/06 05:15:40;;;;;;;0.35;0.30;;;12.30;99.90;;;;;;4981928;28;20426;-78
2023/07/06 05:18:07;;;;;;;0.52;0.50;;;12.30;99.90;;;;;;4981565;28;20065;-78
2023/07/06 05:20:34;;;;;;;1.13;0.60;;;12.40;99.90;;;;;;4981905;28;20438;-79
2023/07/06 05:23:03;;;;;;;0.40;0.40;;;12.50;99.90;;;;;;4968141;28;20053;-77
2023/07/06 05:25:30;;;;;;;0.60;0.40;;;12.50;99.90;;;;;;4984467;28;20057;-77
2023/07/06 05:27:56;;;;;;;0.30;0.30;;;12.60;99.90;;;;;;4967944;28;20407;-77
2023/07/06 05:30:23;;;;;;;0.75;0.43;;;12.60;99.90;;;;;;4984455;28;20214;-77
2023/07/06 05:32:50;;;;;;;0.95;0.50;;;12.70;99.90;;;;;;4980476;28;20057;-77
2023/07/06 05:35:18;;;;;;;0.73;0.47;;;12.80;99.90;;;;;;4980332;28;20513;-78
2023/07/06 05:37:45;;;;;;;0.88;0.55;;;12.90;99.90;;;;;;4982351;28;20661;-78
2023/07/06 05:40:12;;;;;;;0.82;0.50;;;13.00;99.90;;;;;;4978694;28;20112;-78
2023/07/06 05:42:39;;;;;;;1.17;0.60;;;13.10;99.90;;;;;;4952180;28;20053;-78
2023/07/06 05:45:07;;;;;;;0.60;0.40;;;13.20;99.90;;;;;;4986321;28;20056;-78
2023/07/06 05:47:34;;;;;;;0.50;0.40;;;13.20;99.90;;;;;;4957500;28;20058;-78
2023/07/06 05:50:00;;;;;;;0.50;0.40;;;13.40;99.90;;;;;;4987712;28;20048;-78
2023/07/06 05:52:27;;;;;;;0.40;0.30;;;13.40;99.90;;;;;;4970836;28;20059;-77
2023/07/06 05:54:54;;;;;;;0.82;0.60;;;13.50;99.90;;;;;;4964036;28;20058;-78
2023/07/06 05:57:21;;;;;;;0.80;0.40;;;13.60;99.90;;;;;;4984681;28;20058;-78
2023/07/06 05:59:48;;;;;;;0.77;0.60;;;13.70;99.90;;;;;;4986932;28;20880;-78
2023/07/06 06:02:16;;;;;;;0.45;0.40;;;13.70;99.90;;;;;;4972706;28;20065;-78
2023/07/06 06:04:44;;;;;;;0.55;0.50;;;13.80;99.90;;;;;;4955623;28;20053;-79
2023/07/06 06:07:11;;;;;;;0.55;0.40;;;13.80;99.90;;;;;;4978761;28;20159;-78
2023/07/06 06:09:37;;;;;;;0.80;0.55;;;13.90;99.90;;;;;;4979495;28;20458;-79
2023/07/06 06:12:05;;;;;;;1.35;0.73;;;14.00;99.90;;;;;;4971249;28;20682;-78
2023/07/06 06:14:32;;;;;;;1.15;0.73;;;14.00;99.90;;;;;;4968003;28;20049;-77
2023/07/06 06:16:59;;;;;;;0.52;0.50;;;14.10;99.90;;;;;;4952655;28;20045;-78
2023/07/06 06:19:27;;;;;;;1.38;0.70;;;14.10;99.90;;;;;;4970819;28;20046;-78
2023/07/06 06:21:54;;;;;;;1.30;0.60;;;14.20;99.90;;;;;;4987387;28;20053;-78
2023/07/06 06:24:22;;;;;;;1.52;0.90;;;14.30;99.90;;;;;;4984428;28;20042;-78
2023/07/06 06:26:49;;;;;;;0.80;0.50;;;14.40;99.90;;;;;;4999538;28;20509;-77
2023/07/06 06:29:17;;;;;;;0.90;0.60;;;14.60;99.90;;;;;;4985695;28;20502;-77
2023/07/06 06:31:44;;;;;;;0.60;0.60;;;14.70;99.90;;;;;;5002964;28;20761;-80
2023/07/06 06:34:11;;;;;;;1.25;0.70;;;14.80;99.90;;;;;;4968205;28;20146;-77
2023/07/06 06:36:38;;;;;;;0.60;0.60;;;14.90;99.90;;;;;;4967698;28;20046;-76
2023/07/06 06:39:05;;;;;;;0.82;0.50;;;15.00;99.90;;;;;;4983461;28;20129;-77
2023/07/06 06:41:32;;;;;;;1.95;0.70;;;15.20;99.90;;;;;;4984455;28;20812;-77
2023/07/06 06:43:58;;;;;;;1.48;0.60;;;15.40;99.90;;;;;;4972168;28;20053;-78
2023/07/06 06:46:25;;;;;;;1.23;0.68;;;15.50;99.90;;;;;;5006374;28;20136;-79
2023/07/06 06:48:52;;;;;;;1.05;0.45;;;15.70;99.90;;;;;;4972276;28;20049;-77
2023/07/06 06:51:19;;;;;;;0.85;0.60;;;15.80;99.90;;;;;;4988108;28;20164;-79
2023/07/06 06:53:46;;;;;;;1.27;0.85;;;15.90;99.90;;;;;;4987723;28;20046;-78
2023/07/06 06:56:13;;;;;;;1.33;0.52;;;15.90;99.90;;;;;;4981296;28;20062;-79
2023/07/06 06:58:41;;;;;;;1.83;0.95;;;15.90;99.90;;;;;;4982952;28;20382;-78
2023/07/06 07:01:10;;;;;;;2.15;0.85;;;16.00;99.90;;;;;;5004863;28;20456;-78
2023/07/06 07:03:38;;;;;;;0.95;0.77;;;16.10;99.90;;;;;;4982455;28;20050;-79
2023/07/06 07:06:12;;;;;;;2.00;0.90;;;16.20;99.90;;;;;;5000610;28;20137;-78
2023/07/06 07:08:51;;;;;;;0.95;0.50;;;16.40;99.90;;;;;;4980710;28;20053;-78
2023/07/06 07:11:19;;;;;;;0.70;0.60;;;16.50;99.90;;;;;;4969091;28;20061;-78
2023/07/06 07:13:51;;;;;;;1.55;0.70;;;16.60;99.90;;;;;;4968435;28;20042;-78
2023/07/06 07:16:19;;;;;;;0.75;0.60;;;16.70;99.90;;;;;;4971337;28;20045;-78
2023/07/06 07:18:46;;;;;;;1.48;0.70;;;16.80;99.90;;;;;;4954250;28;20050;-78
2023/07/06 07:21:14;;;;;;;0.50;0.50;;;16.90;99.90;;;;;;4970819;28;20116;-79
2023/07/06 07:23:45;;;;;;;1.00;0.60;;;16.90;99.90;;;;;;5003674;28;20041;-78
2023/07/06 07:26:17;;;;;;;1.40;0.60;;;17.00;99.90;;;;;;4966836;28;20070;-78
2023/07/06 07:28:44;;;;;;;0.93;0.70;;;17.10;99.90;;;;;;4983541;28;20058;-78
2023/07/06 07:31:11;;;;;;;0.60;0.60;;;17.20;99.90;;;;;;4968885;28;20053;-77
2023/07/06 07:33:41;;;;;;;1.60;0.80;;;17.30;99.90;;;;;;4983302;28;20058;-77
2023/07/06 07:36:09;;;;;;;1.30;0.80;;;17.30;99.90;;;;;;4982100;28;20104;-77
2023/07/06 07:38:36;;;;;;;2.58;1.08;;;17.20;99.90;;;;;;4966353;28;20038;-78
2023/07/06 07:41:06;;;;;;;1.05;0.55;;;17.20;99.90;;;;;;4994097;28;20053;-77
2023/07/06 07:43:34;;;;;;;1.02;0.60;;;17.20;99.90;;;;;;4965496;28;20119;-77
2023/07/06 07:46:05;;;;;;;1.90;0.60;;;17.30;99.90;;;;;;4955287;28;20042;-77
2023/07/06 07:48:34;;;;;;;2.10;1.05;;;17.30;99.90;;;;;;5004105;28;20093;-77
2023/07/06 07:51:02;;;;;;;1.25;0.82;;;17.30;99.90;;;;;;4971558;28;20042;-77
2023/07/06 07:53:34;;;;;;;1.10;0.50;;;17.30;99.90;;;;;;4965996;28;20049;-77
2023/07/06 07:56:01;;;;;;;1.15;1.00;;;17.30;99.90;;;;;;4964005;28;20080;-78
2023/07/06 07:58:28;;;;;;;1.02;0.82;;;17.30;99.90;;;;;;4984605;28;20057;-78
2023/07/06 08:00:58;;;;;;;2.28;1.05;;;17.30;99.90;;;;;;4984437;28;20057;-77
2023/07/06 08:03:25;;;;;;;1.10;0.57;;;17.30;99.90;;;;;;4967944;28;20093;-78
2023/07/06 08:05:54;;;;;;;1.30;0.90;;;17.30;99.90;;;;;;4984445;28;20398;-77
2023/07/06 08:08:25;;;;;;;0.40;0.40;;;17.40;99.90;;;;;;4955074;28;20382;-78
2023/07/06 08:10:55;;;;;;;1.40;0.60;;;17.50;99.90;;;;;;4955615;28;20122;-78
2023/07/06 08:13:22;;;;;;;1.17;0.55;;;17.60;99.90;;;;;;4977204;28;20120;-77
2023/07/06 08:15:50;;;;;;;0.73;0.50;;;17.80;99.90;;;;;;4953417;28;20160;-78
2023/07/06 08:18:17;;;;;;;1.02;0.55;;;18.10;99.90;;;;;;4951785;28;20062;-77
2023/07/06 08:20:45;;;;;;;0.98;0.70;;;18.30;99.90;;;;;;4970043;28;20137;-77
2023/07/06 08:23:32;;;;;;;0.90;0.50;;;18.50;99.90;;;;;;4987836;28;20058;-77
2023/07/06 08:25:59;;;;;;;0.98;0.68;;;18.50;99.90;;;;;;4980380;28;20451;-78
2023/07/06 08:28:31;;;;;;;0.77;0.45;;;18.40;99.90;;;;;;5001870;28;20053;-78
2023/07/06 08:31:03;;;;;;;1.00;0.50;;;18.40;99.90;;;;;;4969124;28;20608;-77
2023/07/06 08:33:37;;;;;;;0.98;0.80;;;18.40;99.90;;;;;;4951877;28;20752;-77
2023/07/06 08:36:04;;;;;;;2.13;0.60;;;18.50;99.90;;;;;;4956669;28;20052;-77
2023/07/06 08:38:32;;;;;;;1.00;0.70;;;18.70;99.90;;;;;;4954574;28;20463;-78
2023/07/06 08:41:03;;;;;;;1.33;0.85;;;18.80;99.90;;;;;;4970606;28;20425;-77
2023/07/06 08:43:31;;;;;;;2.13;0.80;;;18.80;99.90;;;;;;4970887;28;20065;-77
2023/07/06 08:46:03;;;;;;;1.40;0.70;;;19.00;99.90;;;;;;4967647;28;20382;-77
2023/07/06 08:48:33;;;;;;;2.63;1.13;;;19.10;99.90;;;;;;4984619;28;20120;-77
2023/07/06 08:51:03;;;;;;;0.93;0.73;;;18.90;99.90;;;;;;4971212;28;20155;-77
2023/07/06 08:53:32;;;;;;;1.30;0.73;;;19.10;99.90;;;;;;4953899;28;20398;-77
2023/07/06 08:56:01;;;;;;;1.75;0.68;;;19.10;99.90;;;;;;4970150;28;20050;-77
2023/07/06 08:58:29;;;;;;;0.90;0.50;;;19.20;99.90;;;;;;4985346;28;20068;-76
2023/07/06 09:01:01;;;;;;;1.08;0.52;;;19.30;99.90;;;;;;4970190;28;20112;-77
2023/07/06 09:03:28;;;;;;;0.60;0.45;;;19.40;99.90;;;;;;4953599;28;20156;-77
2023/07/06 09:05:56;;;;;;;0.50;0.50;;;19.60;99.90;;;;;;4954557;28;20481;-77
2023/07/06 09:08:23;;;;;;;1.17;0.50;;;19.80;99.90;;;;;;4969935;28;20046;-77
2023/07/06 09:10:50;;;;;;;2.28;0.60;;;20.00;99.90;;;;;;4986379;28;20112;-77
2023/07/06 09:13:27;;;;;;;0.88;0.60;;;19.90;99.90;;;;;;4953644;28;20073;-77
2023/07/06 09:16:00;;;;;;;0.75;0.40;;;19.90;99.90;;;;;;4970006;28;20054;-77
2023/07/06 09:18:29;;;;;;;1.20;0.50;;;19.90;99.90;;;;;;4985703;28;20046;-77
2023/07/06 09:21:00;;;;;;;1.23;0.52;;;19.90;99.90;;;;;;4971407;28;20042;-77
2023/07/06 09:23:26;;;;;;;0.55;0.55;;;20.00;99.90;;;;;;4954013;28;20517;-77
2023/07/06 09:25:54;;;;;;;0.43;0.38;;;20.10;99.90;;;;;;4954806;28;20065;-78
2023/07/06 09:28:24;;;;;;;0.75;0.55;;;20.20;99.90;;;;;;4955475;28;20244;-78
2023/07/06 09:31:08;;;;;;;1.10;0.70;;;20.40;99.90;;;;;;4958624;28;20059;-77
2023/07/06 09:33:42;;;;;;;0.70;0.40;;;20.50;99.90;;;;;;4989122;28;20060;-78
2023/07/06 09:36:13;;;;;;;1.35;0.98;;;20.40;98.30;;;;;;4974223;28;20111;-77
2023/07/06 09:38:43;;;;;;;2.10;0.60;;;20.30;97.30;;;;;;4973622;28;20116;-78
2023/07/06 09:41:27;;;;;;;1.23;0.57;;;20.00;97.70;;;;;;4972215;28;20116;-77
2023/07/06 09:44:05;;;;;;;0.60;0.60;;;19.90;98.30;;;;;;4985893;28;20431;-77
2023/07/06 09:46:36;;;;;;;1.02;0.68;;;19.70;98.50;;;;;;4955551;28;20080;-77
2023/07/06 09:49:17;;;;;;;1.55;0.70;;;19.50;99.10;;;;;;4972594;28;20054;-77
2023/07/06 09:52:11;;;;;;;0.70;0.60;;;19.40;99.90;;;;;;4974239;28;20124;-77
2023/07/06 09:54:45;;;;;;;1.55;0.70;;;19.50;99.90;;;;;;4975075;28;20141;-77
2023/07/06 09:57:15;;;;;;;1.80;0.80;;;19.70;99.90;;;;;;4988962;28;20137;-76
2023/07/06 09:59:44;;;;;;;1.52;0.68;;;19.80;99.90;;;;;;4973463;28;20062;-77
2023/07/06 10:02:24;;;;;;;1.83;0.70;;;20.00;99.90;;;;;;4973013;28;20112;-76
2023/07/06 10:05:03;;;;;;;0.55;0.47;;;20.20;99.90;;;;;;5006191;28;20129;-77
2023/07/06 10:07:36;;;;;;;0.80;0.60;;;20.40;99.90;;;;;;5004422;28;20139;-77
2023/07/06 10:10:13;;;;;;;1.00;0.70;;;20.80;99.90;;;;;;4986900;28;20057;-79
2023/07/06 10:13:01;;;;;;;1.05;0.60;;;21.00;99.90;;;;;;4987535;28;20062;-79
2023/07/06 10:15:37;;;;;;;1.10;0.60;;;21.00;99.00;;;;;;4969749;28;20654;-78
2023/07/06 10:18:13;;;;;;;0.40;0.40;;;20.90;99.30;;;;;;4971126;28;20053;-79
2023/07/06 10:20:42;;;;;;;0.70;0.60;;;20.80;99.30;;;;;;4988990;28;20137;-78
2023/07/06 10:23:41;;;;;;;0.75;0.50;;;20.70;99.50;;;;;;4987492;28;20111;-78
2023/07/06 10:26:23;;;;;;;1.17;0.70;;;20.70;98.20;;;;;;4949579;28;20791;-77
2023/07/06 10:29:10;;;;;;;0.75;0.52;;;20.70;98.00;;;;;;4985394;28;20057;-78
2023/07/06 10:31:44;;;;;;;1.25;0.68;;;20.80;97.80;;;;;;4969578;28;20131;-78
2023/07/06 10:34:39;;;;;;;1.13;0.63;;;20.90;98.20;;;;;;4956755;28;20073;-78
2023/07/06 10:37:06;;;;;;;0.60;0.57;;;21.20;97.90;;;;;;4988677;28;20469;-78
2023/07/06 10:39:44;;;;;;;0.65;0.60;;;21.50;98.00;;;;;;4956573;28;20214;-78
2023/07/06 10:42:22;;;;;;;2.25;0.90;;;21.50;97.50;;;;;;4988109;28;20138;-79
2023/07/06 10:44:55;;;;;;;0.40;0.40;;;21.70;97.40;;;;;;4971164;28;20046;-78
2023/07/06 10:47:35;;;;;;;0.65;0.57;;;21.80;96.40;;;;;;4965299;28;20054;-78
2023/07/06 10:50:26;;;;;;;0.68;0.52;;;22.20;96.90;;;;;;4969344;28;20125;-78
2023/07/06 10:53:24;;;;;;;1.00;0.88;;;22.60;95.50;;;;;;4973485;28;20081;-78
2023/07/06 10:56:18;;;;;;;0.77;0.63;;;22.40;94.10;;;;;;4976711;28;20477;-78
2023/07/06 10:58:57;;;;;;;1.35;0.80;;;22.20;93.30;;;;;;4986516;28;20469;-78
2023/07/06 11:01:34;;;;;;;0.95;0.70;;;22.10;93.60;;;;;;4989923;28;20129;-78
2023/07/06 11:04:02;;;;;;;0.60;0.40;;;22.30;94.00;;;;;;4972026;28;20050;-77
2023/07/06 11:06:41;;;;;;;1.25;0.90;;;22.40;94.20;;;;;;4969611;28;20148;-79
2023/07/06 11:09:13;;;;;;;1.27;0.77;;;22.50;94.60;;;;;;5002206;28;20065;-79
2023/07/06 11:11:49;;;;;;;1.05;0.75;;;22.50;93.90;;;;;;4972519;28;20080;-78
2023/07/06 11:14:35;;;;;;;1.40;0.88;;;22.50;94.30;;;;;;4972284;28;20050;-78
2023/07/06 11:17:04;;;;;;;0.60;0.60;;;22.60;94.30;;;;;;4989248;28;20064;-78
2023/07/06 11:19:36;;;;;;;0.57;0.57;;;22.60;93.70;;;;;;4987174;28;20076;-78
2023/07/06 11:22:05;;;;;;;1.25;0.50;;;22.60;93.40;;;;;;4956207;28;20379;-78
2023/07/06 11:24:41;;;;;;;0.73;0.55;;;22.80;93.60;;;;;;5002312;28;20628;-78
2023/07/06 11:27:22;;;;;;;1.33;0.60;;;22.80;93.60;;;;;;4984411;28;20061;-78
2023/07/06 11:29:53;;;;;;;1.07;0.60;;;22.70;94.10;;;;;;4985374;28;20061;-79
2023/07/06 11:32:19;;;;;;;1.25;0.75;;;22.40;94.20;;;;;;4968777;28;20050;-78
2023/07/06 11:34:56;;;;;;;0.60;0.57;;;22.30;94.20;;;;;;5004516;28;20053;-78
2023/07/06 11:37:40;;;;;;;1.05;0.70;;;22.30;94.30;;;;;;4986815;28;20108;-77
2023/07/06 11:40:46;;;;;;;0.80;0.70;;;22.30;94.30;;;;;;4990161;28;20143;-78
2023/07/06 11:43:23;;;;;;;1.15;0.70;;;22.50;94.20;;;;;;4969813;28;20050;-77
2023/07/06 11:46:00;;;;;;;0.80;0.68;;;22.60;94.40;;;;;;4987556;28;20167;-78
2023/07/06 11:48:56;;;;;;;1.08;0.80;;;23.40;94.30;;;;;;4970946;28;20054;-77
2023/07/06 11:51:22;;;;;;;0.88;0.77;;;23.30;94.20;;;;;;4971758;28;20073;-77
2023/07/06 11:56:20;;;;;;;1.65;1.00;;;24.50;92.20;;;;;;4971024;28;20069;-77
2023/07/06 11:59:01;;;;;;;0.95;0.80;;;24.90;90.90;;;;;;4970852;28;20057;-78
2023/07/06 12:01:42;;;;;;;1.25;0.80;;;24.80;90.80;;;;;;4987184;28;20049;-77
2023/07/06 12:04:18;;;;;;;1.80;0.85;;;24.70;90.80;;;;;;4988355;28;20404;-78
2023/07/06 12:06:45;;;;;;;1.20;0.93;;;24.40;91.20;;;;;;4970249;28;20046;-77
2023/07/06 12:09:17;;;;;;;0.68;0.60;;;24.10;91.60;;;;;;4986846;28;20054;-78
2023/07/06 12:12:00;;;;;;;0.80;0.77;;;23.90;91.80;;;;;;4986572;28;20557;-78
2023/07/06 12:14:28;;;;;;;2.92;1.20;;;24.10;91.90;;;;;;4956417;28;20054;-77
2023/07/06 12:16:55;;;;;;;1.25;0.93;;;24.90;91.10;;;;;;4971271;28;20124;-77
2023/07/06 12:19:21;;;;;;;1.10;0.80;;;25.50;90.50;;;;;;4970334;28;20052;-77
2023/07/06 12:21:53;;;;;;;1.05;0.90;;;26.10;91.10;;;;;;4986515;28;20645;-77
2023/07/06 12:24:22;;;;;;;0.93;0.60;;;26.60;90.60;;;;;;5001648;28;20057;-77
2023/07/06 12:26:55;;;;;;;1.38;0.82;;;25.90;90.90;;;;;;4967648;28;20287;-77
2023/07/06 12:29:23;;;;;;;0.98;0.70;;;25.80;91.00;;;;;;4969980;28;20049;-77
2023/07/06 12:31:51;;;;;;;0.75;0.70;;;26.20;90.30;;;;;;5004295;28;20102;-77
2023/07/06 12:34:28;;;;;;;1.10;0.88;;;26.70;90.90;;;;;;4954352;28;20062;-77
2023/07/06 12:36:56;;;;;;;0.90;0.77;;;26.90;89.20;;;;;;4971629;28;20049;-77
2023/07/06 12:39:23;;;;;;;0.73;0.68;;;26.70;88.70;;;;;;5004057;28;20054;-77
2023/07/06 12:41:50;;;;;;;0.93;0.60;;;26.70;89.80;;;;;;4985978;28;20054;-77
2023/07/06 12:44:17;;;;;;;0.75;0.73;;;26.70;90.30;;;;;;5003645;28;20073;-78
2023/07/06 12:47:19;;;;;;;1.98;0.82;;;26.40;89.60;;;;;;4970808;28;20510;-77
2023/07/06 12:49:47;;;;;;;0.98;0.68;;;25.90;89.40;;;;;;4986236;28;20054;-78
2023/07/06 12:52:14;;;;;;;0.80;0.80;;;26.20;89.60;;;;;;4986359;28;20060;-78
2023/07/06 12:54:49;;;;;;;1.15;0.70;;;27.20;88.40;;;;;;4986252;28;20050;-78
2023/07/06 12:57:24;;;;;;;0.60;0.57;;;27.50;87.70;;;;;;4974656;28;20616;-78
2023/07/06 12:59:55;;;;;;;1.08;0.80;;;26.80;88.60;;;;;;4990854;28;20048;-78
2023/07/06 13:02:23;;;;;;;1.00;0.90;;;27.20;88.50;;;;;;4971435;28;20417;-78
2023/07/06 13:04:50;;;;;;;1.02;0.75;;;27.50;88.00;;;;;;4971417;28;20570;-79
2023/07/06 13:07:20;;;;;;;0.68;0.65;;;27.40;88.70;;;;;;4973238;28;20054;-77
2023/07/06 13:09:47;;;;;;;1.08;0.75;;;27.30;89.50;;;;;;4973462;28;20505;-78
2023/07/06 13:12:22;;;;;;;1.60;1.00;;;27.20;88.20;;;;;;4957354;28;20481;-77